Time;durP1;ratioP1;P1;durP2;ratioP2;P2;SDS_P1;SDS_P2;PMS_P1;PMS_P2;Temp;Humidity;BMP_temperature;BMP_pressure;BME280_temperature;BME280_humidity;BME280_pressure;Samples;Min_cycle;Max_cycle;Signal;HPM_P1;HPM_P2
2023/09/06 00:00:40;;;;;;;;;;;;;;;17.43;75.39;101947.04;105023;1268;71209;-78
2023/09/06 00:03:27;;;;;;;;;;;;;;;17.41;75.45;101945.05;105743;1269;125039;-77
2023/09/06 00:05:54;;;;;;;;;;;;;;;17.40;75.47;101942.53;105883;1273;61205;-77
2023/09/06 00:08:20;;;;;;;;;;;;;;;17.38;75.48;101939.66;105064;1273;61236;-77
2023/09/06 00:10:47;;;;;;;;;;;;;;;17.36;75.54;101940.35;104923;1273;125230;-77
2023/09/06 00:13:17;;;;;;;;;;;;;;;17.34;75.55;101942.80;105069;1273;71436;-77
2023/09/06 00:15:44;;;;;;;;;;;;;;;17.32;75.47;101940.98;105007;1269;124975;-77
2023/09/06 00:18:11;;;;;;;;;;;;;;;17.30;75.62;101942.91;105042;1273;61205;-77
2023/09/06 00:20:38;;;;;;;;;;;;;;;17.28;75.60;101944.64;105040;1270;74823;-78
2023/09/06 00:23:08;;;;;;;;;;;;;;;17.27;75.79;101941.62;105132;1270;124821;-81
2023/09/06 00:25:35;;;;;;;;;;;;;;;17.25;75.80;101940.72;105053;1270;71504;-82
2023/09/06 00:28:03;;;;;;;;;;;;;;;17.25;75.77;101938.92;104971;1272;125037;-83
2023/09/06 00:30:30;;;;;;;;;;;;;;;17.24;75.86;101938.21;105972;1270;61294;-83
2023/09/06 00:32:57;;;;;;;;;;;;;;;17.24;75.91;101941.04;105949;1270;61276;-77
2023/09/06 00:35:29;;;;;;;;;;;;;;;17.24;75.91;101938.73;105700;1269;126024;-83
2023/09/06 00:37:56;;;;;;;;;;;;;;;17.23;75.95;101943.49;105853;1270;72787;-83
2023/09/06 00:40:22;;;;;;;;;;;;;;;17.22;75.93;101936.03;105772;1270;124838;-82
2023/09/06 00:42:59;;;;;;;;;;;;;;;17.22;75.97;101935.52;105872;1270;59996;-82
2023/09/06 00:45:29;;;;;;;;;;;;;;;17.22;75.99;101940.46;105722;1269;125980;-82
2023/09/06 00:47:55;;;;;;;;;;;;;;;17.21;76.03;101938.86;105809;1270;65332;-77
2023/09/06 00:50:22;;;;;;;;;;;;;;;17.21;76.08;101940.46;105069;1270;74753;-77
2023/09/06 00:52:49;;;;;;;;;;;;;;;17.20;76.10;101941.33;104969;1268;125174;-79
2023/09/06 00:55:16;;;;;;;;;;;;;;;17.21;76.11;101941.16;105936;1269;59364;-77
2023/09/06 00:57:42;;;;;;;;;;;;;;;17.21;76.10;101943.13;105752;1268;125213;-79
2023/09/06 01:00:19;;;;;;;;;;;;;;;17.21;76.10;101944.71;105875;1270;65520;-77
2023/09/06 01:02:47;;;;;;;;;;;;;;;17.20;76.09;101940.81;105726;1273;71754;-77
2023/09/06 01:05:14;;;;;;;;;;;;;;;17.19;76.07;101937.79;105771;1270;124905;-79
2023/09/06 01:07:40;;;;;;;;;;;;;;;17.19;76.07;101935.27;105768;1270;61263;-83
2023/09/06 01:10:07;;;;;;;;;;;;;;;17.18;76.13;101931.55;105690;1270;124925;-82
2023/09/06 01:12:36;;;;;;;;;;;;;;;17.18;76.02;101932.77;105820;1269;65981;-77
2023/09/06 01:15:06;;;;;;;;;;;;;;;17.16;76.10;101929.38;105890;1270;72760;-77
2023/09/06 01:17:34;;;;;;;;;;;;;;;17.15;76.12;101928.48;105781;1271;125244;-81
2023/09/06 01:20:21;;;;;;;;;;;;;;;17.14;76.15;101929.34;105836;1270;59982;-80
2023/09/06 01:22:53;;;;;;;;;;;;;;;17.13;76.13;101934.65;105640;1271;125163;-79
2023/09/06 01:25:20;;;;;;;;;;;;;;;17.12;76.18;101932.69;106033;1270;64859;-80
2023/09/06 01:27:47;;;;;;;;;;;;;;;17.11;76.14;101931.95;105721;1270;125164;-77
2023/09/06 01:30:14;;;;;;;;;;;;;;;17.11;76.21;101928.58;105960;1273;62285;-81
2023/09/06 01:32:40;;;;;;;;;;;;;;;17.11;76.25;101927.88;105907;1273;61253;-77
2023/09/06 01:35:10;;;;;;;;;;;;;;;17.12;76.27;101928.77;105852;1272;124837;-79
2023/09/06 01:37:37;;;;;;;;;;;;;;;17.12;76.24;101928.42;107886;1270;66098;-78
2023/09/06 01:40:14;;;;;;;;;;;;;;;17.12;76.20;101928.79;105770;1271;125079;-77
2023/09/06 01:42:41;;;;;;;;;;;;;;;17.12;76.29;101926.65;105864;1272;61269;-78
2023/09/06 01:45:08;;;;;;;;;;;;;;;17.12;76.31;101927.17;105878;1271;61435;-78
2023/09/06 01:47:35;;;;;;;;;;;;;;;17.13;76.38;101927.89;105696;1270;125592;-78
2023/09/06 01:50:02;;;;;;;;;;;;;;;17.13;76.27;101927.55;105970;1270;66773;-78
2023/09/06 01:52:28;;;;;;;;;;;;;;;17.13;76.29;101924.70;105780;1269;124800;-78
2023/09/06 01:54:55;;;;;;;;;;;;;;;17.13;76.33;101929.49;105810;1267;61186;-77
2023/09/06 01:57:21;;;;;;;;;;;;;;;17.12;76.27;101925.40;105865;1269;125961;-78
2023/09/06 01:59:50;;;;;;;;;;;;;;;17.12;76.27;101928.97;105897;1268;61473;-77
2023/09/06 02:02:17;;;;;;;;;;;;;;;17.12;76.29;101928.96;105895;1273;66002;-78
2023/09/06 02:04:43;;;;;;;;;;;;;;;17.12;76.28;101928.42;105757;1270;125018;-77
2023/09/06 02:07:10;;;;;;;;;;;;;;;17.12;76.33;101928.94;105907;1270;61326;-78
2023/09/06 02:09:36;;;;;;;;;;;;;;;17.11;76.30;101927.88;105887;1269;125193;-77
2023/09/06 02:12:03;;;;;;;;;;;;;;;17.10;76.20;101930.52;105883;1271;59319;-78
2023/09/06 02:14:30;;;;;;;;;;;;;;;17.08;76.22;101926.95;105938;1270;66432;-78
2023/09/06 02:16:56;;;;;;;;;;;;;;;17.07;76.26;101927.08;105734;1270;125195;-79
2023/09/06 02:19:23;;;;;;;;;;;;;;;17.04;76.30;101932.38;105727;1272;61311;-77
2023/09/06 02:21:49;;;;;;;;;;;;;;;17.02;76.31;101927.36;105872;1273;125560;-77
2023/09/06 02:24:16;;;;;;;;;;;;;;;17.00;76.23;101927.69;105818;1271;74673;-77
2023/09/06 02:26:43;;;;;;;;;;;;;;;16.98;76.30;101928.19;105969;1270;64744;-78
2023/09/06 02:29:11;;;;;;;;;;;;;;;16.97;76.45;101928.86;105682;1273;125033;-79
2023/09/06 02:31:38;;;;;;;;;;;;;;;16.94;76.57;101924.20;105858;1271;61081;-77
2023/09/06 02:34:04;;;;;;;;;;;;;;;16.90;76.53;101926.98;105886;1270;125603;-78
2023/09/06 02:36:31;;;;;;;;;;;;;;;16.88;76.50;101929.08;105996;1273;74514;-77
2023/09/06 02:38:57;;;;;;;;;;;;;;;16.85;76.65;101929.90;105859;1270;61309;-77
2023/09/06 02:41:24;;;;;;;;;;;;;;;16.83;76.58;101930.23;105794;1271;125432;-78
2023/09/06 02:43:51;;;;;;;;;;;;;;;16.83;76.80;101934.48;105949;1270;61310;-77
2023/09/06 02:46:17;;;;;;;;;;;;;;;16.82;76.86;101933.54;105772;1273;126725;-78
2023/09/06 02:48:46;;;;;;;;;;;;;;;16.81;76.84;101940.26;105728;1273;61153;-77
2023/09/06 02:51:16;;;;;;;;;;;;;;;16.80;76.94;101939.86;105628;1268;125032;-78
2023/09/06 02:53:45;;;;;;;;;;;;;;;16.79;76.90;101939.33;105967;1270;71444;-77
2023/09/06 02:56:15;;;;;;;;;;;;;;;16.78;77.01;101938.43;105880;1271;61316;-77
2023/09/06 02:58:42;;;;;;;;;;;;;;;16.77;77.12;101937.52;105611;1271;125096;-77
2023/09/06 03:01:19;;;;;;;;;;;;;;;16.75;77.02;101936.08;105760;1270;74723;-77
2023/09/06 03:03:47;;;;;;;;;;;;;;;16.74;77.01;101940.48;104976;1271;124998;-77
2023/09/06 03:06:18;;;;;;;;;;;;;;;16.72;77.09;101939.39;106122;1270;73122;-79
2023/09/06 03:08:45;;;;;;;;;;;;;;;16.70;77.13;101939.53;105894;1270;61466;-77
2023/09/06 03:11:14;;;;;;;;;;;;;;;16.69;77.26;101942.68;105813;1270;124934;-77
2023/09/06 03:13:42;;;;;;;;;;;;;;;16.67;77.21;101940.36;105868;1271;74781;-77
2023/09/06 03:16:13;;;;;;;;;;;;;;;16.64;77.14;101939.42;105887;1273;124919;-77
2023/09/06 03:18:40;;;;;;;;;;;;;;;16.61;77.09;101945.21;105886;1271;73192;-78
2023/09/06 03:21:07;;;;;;;;;;;;;;;16.56;77.18;101944.92;105840;1272;60402;-78
2023/09/06 03:23:33;;;;;;;;;;;;;;;16.52;77.19;101946.27;105839;1273;124693;-78
2023/09/06 03:26:00;;;;;;;;;;;;;;;16.48;77.27;101947.97;105976;1270;73221;-78
2023/09/06 03:28:26;;;;;;;;;;;;;;;16.45;77.25;101947.00;105808;1271;124800;-78
2023/09/06 03:30:53;;;;;;;;;;;;;;;16.41;77.43;101948.00;105849;1271;61205;-78
2023/09/06 03:33:19;;;;;;;;;;;;;;;16.39;77.47;101947.06;105688;1271;125113;-78
2023/09/06 03:35:46;;;;;;;;;;;;;;;16.35;77.51;101947.52;105883;1270;61276;-78
2023/09/06 03:38:15;;;;;;;;;;;;;;;16.31;77.52;101947.80;105904;1270;74808;-79
2023/09/06 03:40:42;;;;;;;;;;;;;;;16.26;77.54;101949.64;105834;1270;125313;-79
2023/09/06 03:43:15;;;;;;;;;;;;;;;16.19;77.61;101949.16;105914;1271;72348;-79
2023/09/06 03:45:44;;;;;;;;;;;;;;;16.14;77.73;101953.27;105782;1270;125079;-78
2023/09/06 03:48:11;;;;;;;;;;;;;;;16.07;77.77;101951.55;107126;1270;59308;-78
2023/09/06 03:50:37;;;;;;;;;;;;;;;16.02;77.91;101950.56;106028;1270;72657;-78
2023/09/06 03:53:04;;;;;;;;;;;;;;;15.99;77.85;101949.95;105933;1271;123848;-78
2023/09/06 03:55:32;;;;;;;;;;;;;;;15.95;77.98;101948.27;105928;1273;72752;-79
2023/09/06 03:57:59;;;;;;;;;;;;;;;15.92;78.03;101949.80;105502;1270;126099;-77
2023/09/06 04:00:31;;;;;;;;;;;;;;;15.89;78.19;101947.60;104806;1276;61386;-77
2023/09/06 04:02:58;;;;;;;;;;;;;;;15.88;78.26;101948.30;104991;1273;74786;-78
2023/09/06 04:05:28;;;;;;;;;;;;;;;15.87;78.30;101948.81;105586;1270;127019;-78
2023/09/06 04:07:55;;;;;;;;;;;;;;;15.90;78.57;101948.70;105766;1271;73332;-78
2023/09/06 04:10:23;;;;;;;;;;;;;;;15.93;78.56;101947.33;108096;1271;124992;-78
2023/09/06 04:12:50;;;;;;;;;;;;;;;15.92;78.46;101948.57;108134;1270;60194;-78
2023/09/06 04:15:21;;;;;;;;;;;;;;;15.94;78.64;101950.02;108071;1270;124936;-78
2023/09/06 04:17:50;;;;;;;;;;;;;;;15.99;78.74;101951.89;108113;1270;66382;-78
2023/09/06 04:20:20;;;;;;;;;;;;;;;16.03;78.69;101958.89;108170;1270;73563;-78
2023/09/06 04:22:47;;;;;;;;;;;;;;;16.07;78.66;101960.93;107263;1270;124819;-78
2023/09/06 04:25:16;;;;;;;;;;;;;;;16.10;78.67;101960.30;105910;1268;59487;-80
2023/09/06 04:27:46;;;;;;;;;;;;;;;16.15;78.78;101955.95;105735;1268;125056;-81
2023/09/06 04:30:15;;;;;;;;;;;;;;;16.19;78.81;101960.14;105885;1269;66258;-81
2023/09/06 04:32:44;;;;;;;;;;;;;;;16.26;78.80;101958.86;105740;1273;72760;-81
2023/09/06 04:35:11;;;;;;;;;;;;;;;16.61;79.83;101953.70;105836;1273;124973;-83
2023/09/06 04:37:38;;;;;;;;;;;;;;;17.60;81.12;101949.40;105657;1271;61384;-83
2023/09/06 04:40:08;;;;;;;;;;;;;;;18.78;80.59;101947.02;105750;1270;125183;-84
2023/09/06 04:42:34;;;;;;;;;;;;;;;19.92;79.18;101952.08;105862;1272;66166;-81
2023/09/06 04:45:02;;;;;;;;;;;;;;;20.96;77.58;101951.02;105666;1268;73084;-82
2023/09/06 04:47:30;;;;;;;;;;;;;;;21.93;76.11;101948.11;105666;1270;124930;-82
2023/09/06 04:49:58;;;;;;;;;;;;;;;22.85;74.73;101952.52;105813;1273;61307;-83
2023/09/06 04:52:26;;;;;;;;;;;;;;;23.81;73.37;101955.85;105720;1268;124533;-89
2023/09/06 04:54:53;;;;;;;;;;;;;;;24.66;71.64;101959.84;105677;1268;66721;-81
2023/09/06 04:57:20;;;;;;;;;;;;;;;25.44;70.05;101960.23;105603;1271;124514;-78
2023/09/06 04:59:47;;;;;;;;;;;;;;;26.06;68.31;101960.71;105811;1271;61376;-82
2023/09/06 05:02:15;;;;;;;;;;;;;;;26.21;66.56;101958.08;105680;1273;61141;-85
2023/09/06 05:04:43;;;;;;;;;;;;;;;25.88;64.69;101959.64;105703;1272;124168;-82
2023/09/06 05:07:10;;;;;;;;;;;;;;;25.29;63.35;101965.55;105822;1270;65891;-81
2023/09/06 05:09:37;;;;;;;;;;;;;;;24.59;63.11;101967.84;105740;1271;124565;-81
2023/09/06 05:12:04;;;;;;;;;;;;;;;24.05;63.28;101971.73;105834;1270;61409;-80
2023/09/06 05:14:31;;;;;;;;;;;;;;;23.57;63.37;101973.46;105812;1273;61274;-80
2023/09/06 05:16:57;;;;;;;;;;;;;;;23.14;63.49;101978.66;105669;1271;124691;-80
2023/09/06 05:19:30;;;;;;;;;;;;;;;22.81;63.90;101982.98;105871;1270;61275;-84
2023/09/06 05:21:58;;;;;;;;;;;;;;;22.53;64.19;101992.44;105785;1271;125468;-80
2023/09/06 05:24:25;;;;;;;;;;;;;;;22.29;64.57;101995.39;105743;1269;61339;-80
2023/09/06 05:26:52;;;;;;;;;;;;;;;22.07;64.70;101992.39;105770;1273;61198;-79
2023/09/06 05:29:19;;;;;;;;;;;;;;;21.88;65.04;101997.27;105668;1271;124924;-79
2023/09/06 05:31:45;;;;;;;;;;;;;;;21.70;65.20;101995.71;105067;1270;61231;-76
2023/09/06 05:34:12;;;;;;;;;;;;;;;21.55;65.46;101997.86;105208;1271;125572;-81
2023/09/06 05:36:38;;;;;;;;;;;;;;;21.45;65.73;102004.63;105763;1270;61276;-81
2023/09/06 05:39:08;;;;;;;;;;;;;;;21.36;65.99;102009.08;105706;1273;61154;-81
2023/09/06 05:41:34;;;;;;;;;;;;;;;21.30;66.28;102010.69;105720;1273;124719;-78
2023/09/06 05:44:01;;;;;;;;;;;;;;;21.27;66.40;102014.25;105941;1273;61204;-82
2023/09/06 05:46:27;;;;;;;;;;;;;;;21.22;66.49;102016.04;105480;1271;126811;-80
2023/09/06 05:48:54;;;;;;;;;;;;;;;21.12;66.51;102013.17;106088;1270;61279;-80
2023/09/06 05:51:20;;;;;;;;;;;;;;;21.00;66.62;102016.89;106021;1269;125989;-81
2023/09/06 05:53:47;;;;;;;;;;;;;;;20.87;66.68;102028.28;106090;1270;59379;-79
2023/09/06 05:56:13;;;;;;;;;;;;;;;20.81;66.85;102028.44;106343;1270;59797;-83
2023/09/06 05:58:40;;;;;;;;;;;;;;;20.77;67.06;102028.79;106150;1271;124266;-80
2023/09/06 06:01:08;;;;;;;;;;;;;;;20.73;67.10;102033.40;106030;1271;61231;-81
2023/09/06 06:03:36;;;;;;;;;;;;;;;20.70;67.20;102037.32;105860;1270;124831;-80
2023/09/06 06:06:06;;;;;;;;;;;;;;;20.68;67.29;102035.88;105932;1270;74713;-80
2023/09/06 06:08:32;;;;;;;;;;;;;;;20.69;67.41;102039.98;106124;1271;65016;-81
2023/09/06 06:10:59;;;;;;;;;;;;;;;20.71;67.59;102050.17;105641;1274;124302;-82
2023/09/06 06:13:26;;;;;;;;;;;;;;;20.73;67.71;102049.11;105654;1270;59811;-82
2023/09/06 06:15:52;;;;;;;;;;;;;;;20.72;67.72;102048.58;105684;1273;124803;-83
2023/09/06 06:18:19;;;;;;;;;;;;;;;20.72;67.78;102046.79;105773;1268;61201;-84
2023/09/06 06:20:45;;;;;;;;;;;;;;;20.72;67.76;102048.39;105847;1270;66315;-83
2023/09/06 06:23:12;;;;;;;;;;;;;;;20.73;67.72;102051.25;105768;1268;124278;-75
2023/09/06 06:25:38;;;;;;;;;;;;;;;20.74;67.83;102052.50;105106;1274;61415;-83
2023/09/06 06:28:05;;;;;;;;;;;;;;;20.75;68.01;102050.90;105677;1270;125140;-83
2023/09/06 06:30:31;;;;;;;;;;;;;;;20.75;68.15;102049.48;105684;1268;73418;-84
2023/09/06 06:33:00;;;;;;;;;;;;;;;20.73;68.17;102051.61;105971;1272;65482;-82
2023/09/06 06:35:26;;;;;;;;;;;;;;;20.70;68.22;102052.50;105706;1271;124147;-82
2023/09/06 06:37:59;;;;;;;;;;;;;;;20.71;68.30;102053.92;105590;1270;61342;-82
2023/09/06 06:40:26;;;;;;;;;;;;;;;20.71;68.28;102062.13;105651;1271;124429;-83
2023/09/06 06:42:54;;;;;;;;;;;;;;;20.72;68.34;102062.30;105708;1270;73064;-83
2023/09/06 06:45:23;;;;;;;;;;;;;;;20.72;68.32;102066.05;105487;1276;124584;-84
2023/09/06 06:47:50;;;;;;;;;;;;;;;20.75;68.49;102065.16;105846;1270;72760;-83
2023/09/06 06:50:16;;;;;;;;;;;;;;;20.78;68.31;102064.99;105824;1273;59573;-81
2023/09/06 06:52:44;;;;;;;;;;;;;;;20.81;68.14;102067.69;106047;1267;125075;-83
2023/09/06 06:55:10;;;;;;;;;;;;;;;20.80;68.06;102066.61;106325;1272;74732;-84
2023/09/06 06:57:37;;;;;;;;;;;;;;;20.79;68.07;102063.03;106057;1271;124981;-82
2023/09/06 07:00:11;;;;;;;;;;;;;;;20.83;68.18;102064.31;106099;1270;72442;-84
2023/09/06 07:02:38;;;;;;;;;;;;;;;20.87;68.23;102064.69;107173;1271;59618;-82
2023/09/06 07:05:04;;;;;;;;;;;;;;;20.93;68.15;102068.09;106028;1270;125594;-83
2023/09/06 07:07:31;;;;;;;;;;;;;;;20.97;68.15;102073.80;105926;1273;73920;-82
2023/09/06 07:09:57;;;;;;;;;;;;;;;20.99;68.03;102073.64;105683;1271;125065;-82
2023/09/06 07:12:24;;;;;;;;;;;;;;;21.00;68.03;102073.28;105795;1272;61282;-84
2023/09/06 07:14:51;;;;;;;;;;;;;;;21.03;68.23;102074.02;105805;1270;61394;-83
2023/09/06 07:17:18;;;;;;;;;;;;;;;21.09;68.11;102080.80;105718;1273;124469;-83
2023/09/06 07:19:45;;;;;;;;;;;;;;;21.11;68.16;102076.89;105838;1270;74711;-83
2023/09/06 07:22:11;;;;;;;;;;;;;;;21.17;68.18;102080.46;105691;1269;124238;-84
2023/09/06 07:24:38;;;;;;;;;;;;;;;21.21;68.34;102080.11;105771;1270;72753;-83
2023/09/06 07:27:04;;;;;;;;;;;;;;;21.23;68.27;102078.69;105741;1273;61227;-83
2023/09/06 07:29:31;;;;;;;;;;;;;;;21.24;68.35;102080.13;105459;1276;124975;-84
2023/09/06 07:31:58;;;;;;;;;;;;;;;21.27;68.48;102084.60;105665;1270;61215;-83
2023/09/06 07:34:25;;;;;;;;;;;;;;;21.34;68.48;102086.20;105630;1273;125234;-83
2023/09/06 07:36:52;;;;;;;;;;;;;;;21.34;68.09;102091.39;105874;1270;72878;-83
2023/09/06 07:39:18;;;;;;;;;;;;;;;21.32;68.17;102095.48;105657;1271;125330;-84
2023/09/06 07:41:45;;;;;;;;;;;;;;;21.35;68.27;102098.35;105767;1270;61290;-83
2023/09/06 07:44:11;;;;;;;;;;;;;;;21.41;68.27;102103.19;105645;1271;207090;-83
2023/09/06 07:46:40;;;;;;;;;;;;;;;21.44;68.10;102098.92;105786;1272;124663;-82
2023/09/06 07:49:06;;;;;;;;;;;;;;;21.49;68.26;102097.88;106036;1273;72970;-83
2023/09/06 07:51:33;;;;;;;;;;;;;;;21.55;68.27;102100.92;105764;1270;124269;-83
2023/09/06 07:54:00;;;;;;;;;;;;;;;21.60;68.10;102102.89;105831;1273;61385;-83
2023/09/06 07:56:26;;;;;;;;;;;;;;;21.62;67.96;102101.81;105731;1276;73493;-83
2023/09/06 07:58:53;;;;;;;;;;;;;;;21.65;67.90;102101.10;105675;1273;124244;-82
2023/09/06 08:01:19;;;;;;;;;;;;;;;21.69;67.93;102097.55;105793;1273;72628;-83
2023/09/06 08:03:46;;;;;;;;;;;;;;;21.74;67.90;102095.94;105786;1274;125943;-83
2023/09/06 08:06:13;;;;;;;;;;;;;;;21.79;67.91;102097.54;105756;1273;61178;-82
2023/09/06 08:08:40;;;;;;;;;;;;;;;21.83;67.87;102096.83;105721;1271;74371;-83
2023/09/06 08:11:07;;;;;;;;;;;;;;;21.88;67.75;102096.81;105748;1270;125367;-83
2023/09/06 08:13:33;;;;;;;;;;;;;;;21.92;67.73;102099.68;105873;1269;71191;-83
2023/09/06 08:16:00;;;;;;;;;;;;;;;21.97;67.60;102092.52;105830;1269;125739;-83
2023/09/06 08:18:28;;;;;;;;;;;;;;;22.02;67.73;102090.55;105809;1276;61317;-83
2023/09/06 08:20:54;;;;;;;;;;;;;;;22.07;67.63;102089.11;105814;1270;74425;-83
2023/09/06 08:23:21;;;;;;;;;;;;;;;22.12;67.68;102094.83;105591;1274;125104;-82
2023/09/06 08:25:48;;;;;;;;;;;;;;;22.18;67.50;102093.21;105805;1270;71884;-83
2023/09/06 08:28:16;;;;;;;;;;;;;;;22.24;67.39;102095.54;105717;1269;124815;-83
2023/09/06 08:30:44;;;;;;;;;;;;;;;22.32;67.38;102093.02;105654;1274;61292;-82
2023/09/06 08:33:11;;;;;;;;;;;;;;;22.39;67.39;102094.46;105770;1272;73857;-84
2023/09/06 08:35:37;;;;;;;;;;;;;;;22.45;67.40;102098.54;105690;1270;123991;-82
2023/09/06 08:38:04;;;;;;;;;;;;;;;22.50;67.04;102099.95;105911;1270;71962;-82
2023/09/06 08:40:30;;;;;;;;;;;;;;;22.54;66.97;102107.28;105770;1274;124393;-84
2023/09/06 08:42:57;;;;;;;;;;;;;;;22.57;66.91;102107.80;105805;1271;61192;-82
2023/09/06 08:45:24;;;;;;;;;;;;;;;22.62;66.77;102104.57;105748;1273;126104;-82
2023/09/06 08:47:50;;;;;;;;;;;;;;;22.66;66.64;102102.41;105790;1276;66282;-83
2023/09/06 08:50:17;;;;;;;;;;;;;;;22.71;66.61;102100.96;105933;1271;71402;-83
2023/09/06 08:52:44;;;;;;;;;;;;;;;22.74;66.45;102105.07;105613;1269;124582;-83
2023/09/06 08:55:10;;;;;;;;;;;;;;;22.76;66.11;102103.98;105826;1276;61285;-82
2023/09/06 08:57:37;;;;;;;;;;;;;;;22.78;66.03;102107.02;105748;1273;124311;-82
2023/09/06 09:00:04;;;;;;;;;;;;;;;22.80;65.79;102107.00;105862;1270;66395;-82
2023/09/06 09:02:31;;;;;;;;;;;;;;;22.82;65.80;102108.61;105772;1274;71532;-82
2023/09/06 09:04:58;;;;;;;;;;;;;;;22.86;65.96;102111.28;105588;1270;124356;-82
2023/09/06 09:07:25;;;;;;;;;;;;;;;22.91;65.67;102110.89;105840;1270;61389;-82
2023/09/06 09:09:58;;;;;;;;;;;;;;;22.95;65.77;102112.84;105668;1270;124874;-83
2023/09/06 09:12:25;;;;;;;;;;;;;;;22.98;65.73;102120.17;105756;1273;64814;-82
2023/09/06 09:14:54;;;;;;;;;;;;;;;23.02;65.64;102117.48;105625;1276;72552;-82
2023/09/06 09:17:21;;;;;;;;;;;;;;;23.05;65.74;102114.45;105630;1273;125429;-82
2023/09/06 09:19:49;;;;;;;;;;;;;;;23.08;65.44;102118.36;105432;1270;61348;-83
2023/09/06 09:22:30;;;;;;;;;;;;;;;23.08;65.35;102117.48;105628;1273;125209;-83
2023/09/06 09:28:16;;;;;;;;;;;;;;;23.14;65.24;102126.58;104964;1282;72915;-85
2023/09/06 09:30:42;;;;;;;;;;;;;;;23.15;64.75;102127.83;105067;1280;61359;-83
2023/09/06 09:33:11;;;;;;;;;;;;;;;23.16;64.59;102127.64;105044;1278;61241;-83
2023/09/06 09:35:41;;;;;;;;;;;;;;;23.18;64.42;102130.67;104845;1281;124209;-85
2023/09/06 09:38:13;;;;;;;;;;;;;;;23.21;63.99;102137.64;104769;1293;64970;-85
2023/09/06 09:40:39;;;;;;;;;;;;;;;23.21;63.49;102146.77;104967;1276;124633;-82
2023/09/06 09:43:06;;;;;;;;;;;;;;;23.16;63.15;102139.98;104951;1282;59567;-85
2023/09/06 09:45:43;;;;;;;;;;;;;;;23.15;63.19;102144.47;105155;1276;124779;-83
2023/09/06 09:48:10;;;;;;;;;;;;;;;23.18;63.37;102147.86;105111;1283;75335;-83
2023/09/06 09:50:36;;;;;;;;;;;;;;;23.21;63.04;102150.72;104976;1276;63895;-84
2023/09/06 09:53:07;;;;;;;;;;;;;;;23.24;62.63;102148.02;105017;1277;125434;-84
2023/09/06 09:55:35;;;;;;;;;;;;;;;23.24;62.39;102150.70;105075;1280;60520;-83
2023/09/06 09:58:07;;;;;;;;;;;;;;;23.24;62.28;102149.62;104851;1277;124513;-84
2023/09/06 10:00:33;;;;;;;;;;;;;;;23.24;62.10;102150.88;105047;1276;74752;-83
2023/09/06 10:03:00;;;;;;;;;;;;;;;23.25;61.86;102151.40;105143;1280;66308;-83
2023/09/06 10:05:28;;;;;;;;;;;;;;;23.23;61.53;102153.92;105402;1270;124348;-85
2023/09/06 10:07:57;;;;;;;;;;;;;;;23.21;61.64;102152.69;105823;1273;61387;-85
2023/09/06 10:10:28;;;;;;;;;;;;;;;23.21;61.59;102146.78;105513;1276;124705;-83
2023/09/06 10:13:01;;;;;;;;;;;;;;;23.24;61.82;102147.66;105774;1268;74772;-83
2023/09/06 10:15:28;;;;;;;;;;;;;;;23.23;61.65;102144.45;105798;1273;66309;-83
2023/09/06 10:17:55;;;;;;;;;;;;;;;23.19;61.55;102145.17;106122;1270;72766;-84
2023/09/06 10:20:30;;;;;;;;;;;;;;;23.17;61.53;102145.02;105969;1273;61322;-83
2023/09/06 10:22:57;;;;;;;;;;;;;;;23.15;61.51;102146.99;105830;1270;124299;-84
2023/09/06 10:25:25;;;;;;;;;;;;;;;23.11;61.55;102148.43;105849;1270;73804;-84
2023/09/06 10:27:55;;;;;;;;;;;;;;;23.07;61.39;102144.88;105628;1275;124570;-84
2023/09/06 10:30:28;;;;;;;;;;;;;;;23.03;61.31;102140.20;106025;1270;71168;-85
2023/09/06 10:32:55;;;;;;;;;;;;;;;23.01;61.25;102141.29;105879;1270;61212;-82
2023/09/06 10:35:25;;;;;;;;;;;;;;;23.00;61.20;102140.05;105678;1271;124226;-84
2023/09/06 10:38:02;;;;;;;;;;;;;;;23.00;61.28;102139.85;105555;1270;74779;-83
2023/09/06 10:40:57;;;;;;;;;;;;;;;23.04;61.25;102143.09;105754;1271;124329;-82
2023/09/06 10:43:28;;;;;;;;;;;;;;;23.06;61.01;102140.93;105612;1271;71390;-82
2023/09/06 10:45:54;;;;;;;;;;;;;;;23.08;60.90;102140.21;105664;1273;124629;-82
2023/09/06 10:48:21;;;;;;;;;;;;;;;23.12;61.03;102140.73;105652;1275;61631;-83
2023/09/06 10:51:07;;;;;;;;;;;;;;;23.16;60.87;102142.86;105822;1275;73707;-83
2023/09/06 10:53:34;;;;;;;;;;;;;;;23.16;60.51;102145.19;105728;1269;124388;-82
2023/09/06 10:56:02;;;;;;;;;;;;;;;23.15;60.57;102141.44;105778;1270;72802;-83
2023/09/06 10:58:32;;;;;;;;;;;;;;;23.17;60.71;102143.74;105739;1270;124316;-83
2023/09/06 11:01:16;;;;;;;;;;;;;;;23.21;60.45;102143.90;105694;1276;59935;-83
2023/09/06 11:03:49;;;;;;;;;;;;;;;23.20;60.29;102142.12;105676;1273;124467;-83
2023/09/06 11:06:15;;;;;;;;;;;;;;;23.18;60.30;102141.41;105621;1272;66134;-83
2023/09/06 11:08:42;;;;;;;;;;;;;;;23.21;60.30;102138.90;105806;1270;71713;-83
2023/09/06 11:11:09;;;;;;;;;;;;;;;23.23;60.19;102139.60;105769;1270;125324;-83
2023/09/06 11:13:36;;;;;;;;;;;;;;;23.23;59.90;102137.45;105735;1270;61301;-83
2023/09/06 11:16:03;;;;;;;;;;;;;;;23.23;59.96;102139.95;105637;1270;124521;-84
2023/09/06 11:18:32;;;;;;;;;;;;;;;23.24;59.95;102138.70;105803;1270;67765;-83
2023/09/06 11:21:01;;;;;;;;;;;;;;;23.26;59.89;102138.16;105732;1272;72760;-83
2023/09/06 11:23:28;;;;;;;;;;;;;;;23.27;59.87;102140.83;105670;1270;124481;-83
2023/09/06 11:25:58;;;;;;;;;;;;;;;23.29;60.08;102141.54;105562;1270;61302;-83
2023/09/06 11:28:26;;;;;;;;;;;;;;;23.34;59.95;102146.70;105679;1272;124425;-82
2023/09/06 11:30:53;;;;;;;;;;;;;;;23.34;59.87;102145.98;105823;1273;66502;-83
2023/09/06 11:33:25;;;;;;;;;;;;;;;23.33;59.80;102146.35;105708;1271;72588;-83
2023/09/06 11:35:56;;;;;;;;;;;;;;;23.32;59.88;102143.13;105831;1269;59318;-83
2023/09/06 11:38:28;;;;;;;;;;;;;;;23.35;59.84;102142.39;105591;1277;61323;-83
2023/09/06 11:40:55;;;;;;;;;;;;;;;23.40;59.94;102142.72;105688;1273;124264;-84
2023/09/06 11:43:26;;;;;;;;;;;;;;;23.45;59.99;102147.88;105678;1273;65342;-82
2023/09/06 11:45:54;;;;;;;;;;;;;;;23.50;59.91;102147.68;105651;1270;124516;-83
2023/09/06 11:48:27;;;;;;;;;;;;;;;23.55;59.69;102151.40;105642;1271;61467;-83
2023/09/06 11:51:05;;;;;;;;;;;;;;;23.56;59.59;102149.42;105895;1273;61179;-82
2023/09/06 11:53:39;;;;;;;;;;;;;;;23.58;59.68;102146.91;105712;1271;124389;-83
2023/09/06 11:56:07;;;;;;;;;;;;;;;23.60;59.51;102141.33;105611;1275;65030;-83
2023/09/06 11:58:43;;;;;;;;;;;;;;;23.60;59.47;102140.43;105655;1268;124337;-83
2023/09/06 12:01:11;;;;;;;;;;;;;;;23.61;59.47;102142.59;105863;1268;61332;-83
2023/09/06 12:03:44;;;;;;;;;;;;;;;23.65;59.38;102141.48;105670;1273;124745;-83
2023/09/06 12:06:11;;;;;;;;;;;;;;;23.66;59.20;102145.23;105832;1269;73758;-83
2023/09/06 12:08:38;;;;;;;;;;;;;;;23.67;58.89;102145.94;105940;1270;64807;-83
2023/09/06 12:11:11;;;;;;;;;;;;;;;23.69;59.00;102148.98;105818;1270;124571;-83
2023/09/06 12:13:38;;;;;;;;;;;;;;;23.72;58.95;102148.77;105787;1270;61189;-85
2023/09/06 12:19:17;;;;;;;;;;;;;;;23.75;58.90;102148.75;105263;1273;75240;-83
2023/09/06 12:21:44;;;;;;;;;;;;;;;23.78;58.41;102149.80;105189;1273;125259;-85
2023/09/06 12:24:10;;;;;;;;;;;;;;;23.78;57.87;102148.37;105234;1274;61179;-85
2023/09/06 12:26:37;;;;;;;;;;;;;;;23.80;57.57;102148.56;105122;1273;61694;-83
2023/09/06 12:29:06;;;;;;;;;;;;;;;23.85;57.23;102152.65;105212;1274;124505;-83
2023/09/06 12:31:33;;;;;;;;;;;;;;;23.84;56.73;102152.12;105157;1275;74986;-83
2023/09/06 12:33:59;;;;;;;;;;;;;;;23.80;56.67;102154.48;105165;1273;124684;-85